createdAt,value
2022-12-08T00:15:31.540Z,100093.16
2022-12-08T00:37:07.337Z,100108.72
2022-12-08T01:09:39.496Z,100110.78
2022-12-08T01:12:07.791Z,100112.69
2022-12-08T01:19:11.327Z,100115.94
2022-12-08T01:41:04.851Z,100089.47
2022-12-08T01:44:00.398Z,100086.88
2022-12-08T01:52:36.549Z,100089.84
2022-12-08T02:00:47.615Z,100079.63
2022-12-08T02:13:06.699Z,100080.88
2022-12-08T02:20:39.324Z,100063.88
2022-12-08T02:51:51.447Z,100050.38
2022-12-08T02:59:10.530Z,100054.38
2022-12-08T03:06:46.617Z,100039.47
2022-12-08T03:27:45.687Z,100030.66
2022-12-08T03:44:28.432Z,100019.06
2022-12-08T03:51:48.317Z,100018.88
2022-12-08T04:00:24.504Z,100018.00
2022-12-08T04:07:38.421Z,100012.31
2022-12-08T04:14:50.688Z,100008.66
2022-12-08T04:41:06.320Z,99994.81
2022-12-08T04:58:26.660Z,100002.81
2022-12-08T05:05:46.720Z,99992.41
2022-12-08T05:22:52.515Z,99999.34
2022-12-08T06:10:55.632Z,99984.69
2022-12-08T06:23:38.837Z,99995.56
2022-12-08T06:30:59.477Z,100007.34
2022-12-08T06:42:58.581Z,100022.91
2022-12-08T06:50:13.680Z,100022.03
2022-12-08T06:52:51.777Z,100023.75
2022-12-08T06:55:50.808Z,100019.97
2022-12-08T06:58:11.657Z,100014.44
2022-12-08T07:00:39.720Z,100009.91
2022-12-08T07:03:08.929Z,100008.19
2022-12-08T07:05:36.997Z,100002.47
2022-12-08T07:08:06.982Z,99998.84
2022-12-08T07:10:34.862Z,99995.22
2022-12-08T07:13:02.291Z,100009.06
2022-12-08T07:15:29.751Z,100013.56
2022-12-08T07:18:00.029Z,100012.50
2022-12-08T07:20:28.281Z,100009.91
2022-12-08T07:22:56.018Z,100010.97
2022-12-08T07:25:23.691Z,100008.19
2022-12-08T07:27:52.697Z,100009.06
2022-12-08T07:30:20.589Z,100006.13
2022-12-08T07:32:48.024Z,100010.78
2022-12-08T07:35:15.559Z,100005.25
2022-12-08T07:37:43.079Z,100006.97
2022-12-08T07:40:11.104Z,100013.56
2022-12-08T07:42:38.541Z,100008.91
2022-12-08T07:45:06.608Z,100001.44
2022-12-08T07:47:34.083Z,99992.47
2022-12-08T07:50:01.732Z,99996.06
2022-12-08T07:52:29.388Z,99986.91
2022-12-08T07:54:56.807Z,99985.00
2022-12-08T07:57:24.213Z,99981.22
2022-12-08T07:59:51.639Z,99976.53
2022-12-08T08:02:25.363Z,99974.63
2022-12-08T08:04:53.846Z,99969.25
2022-12-08T08:07:21.483Z,99972.03
2022-12-08T08:09:48.994Z,99974.97
2022-12-08T08:12:31.179Z,99978.78
2022-12-08T08:15:01.222Z,99968.59
2022-12-08T08:17:30.060Z,99972.22
2022-12-08T08:19:57.696Z,99974.63
2022-12-08T08:22:26.349Z,99975.84
2022-12-08T08:24:54.345Z,99970.31
2022-12-08T08:27:22.560Z,99966.00
2022-12-08T08:29:50.007Z,99963.91
2022-12-08T08:32:17.452Z,99977.75
2022-12-08T08:34:44.965Z,99978.63
2022-12-08T08:37:12.567Z,99974.31
2022-12-08T08:39:40.029Z,99973.25
2022-12-08T08:42:07.514Z,99963.06
2022-12-08T08:44:34.901Z,99950.06
2022-12-08T08:47:02.359Z,99953.03
2022-12-08T08:49:29.758Z,99949.00
2022-12-08T08:51:57.208Z,99944.53
2022-12-08T08:54:24.690Z,99937.78
2022-12-08T08:56:52.731Z,99926.03
2022-12-08T08:59:20.166Z,99920.84
2022-12-08T09:01:47.668Z,99925.34
2022-12-08T09:04:15.294Z,99926.03
2022-12-08T09:06:44.184Z,99917.91
2022-12-08T09:09:12.294Z,99918.94
2022-12-08T09:11:40.286Z,99909.75
2022-12-08T09:14:07.749Z,99909.41
2022-12-08T09:16:40.411Z,99905.09
2022-12-08T09:19:09.721Z,99909.75
2022-12-08T09:21:37.252Z,99918.06
2022-12-08T09:24:04.834Z,99913.56
2022-12-08T09:26:32.280Z,99908.91
2022-12-08T09:28:59.781Z,99903.56
2022-12-08T09:31:27.371Z,99902.72
2022-12-08T09:33:55.086Z,99893.16
2022-12-08T09:36:22.627Z,99887.81
2022-12-08T09:38:51.149Z,99883.13
2022-12-08T09:41:50.113Z,99875.88
2022-12-08T09:44:57.240Z,99865.00
2022-12-08T09:47:35.538Z,99873.31
2022-12-08T09:50:09.825Z,99877.97
2022-12-08T09:53:17.979Z,99879.53
2022-12-08T09:56:17.377Z,99862.91
2022-12-08T09:58:48.449Z,99856.50
2022-12-08T10:01:16.666Z,99853.94
2022-12-08T10:03:44.571Z,99852.00
2022-12-08T10:06:37.390Z,99844.75
2022-12-08T10:09:23.288Z,99839.06
2022-12-08T10:11:55.954Z,99847.53
2022-12-08T10:14:43.859Z,99839.91
2022-12-08T10:17:30.906Z,99835.59
2022-12-08T10:20:04.084Z,99826.25
2022-12-08T10:22:37.602Z,99816.91
2022-12-08T10:25:23.323Z,99815.84
2022-12-08T10:27:54.053Z,99809.44
2022-12-08T10:30:22.331Z,99805.13
2022-12-08T10:32:52.901Z,99805.13
2022-12-08T10:35:22.830Z,99790.28
2022-12-08T10:37:58.678Z,99793.03
2022-12-08T10:40:39.070Z,99784.75
2022-12-08T10:43:17.631Z,99779.38
2022-12-08T10:45:45.347Z,99780.22
2022-12-08T10:48:19.136Z,99772.78
2022-12-08T10:50:54.315Z,99769.16
2022-12-08T10:53:29.108Z,99770.03
2022-12-08T10:56:02.465Z,99758.09
2022-12-08T10:58:30.213Z,99757.25
2022-12-08T11:01:10.851Z,99734.22
2022-12-08T11:03:50.073Z,99726.13
2022-12-08T11:06:21.974Z,99718.66
2022-12-08T11:08:53.010Z,99714.00
2022-12-08T11:11:29.005Z,99718.66
2022-12-08T11:13:57.128Z,99727.84
2022-12-08T11:16:25.198Z,99724.34
2022-12-08T11:18:57.321Z,99715.91
2022-12-08T11:21:36.805Z,99706.75
2022-12-08T11:24:32.290Z,99719.34
2022-12-08T11:27:05.209Z,99705.84
2022-12-08T11:29:35.288Z,99691.00
2022-12-08T11:32:08.005Z,99688.38
2022-12-08T11:34:45.721Z,99692.91
2022-12-08T11:37:47.030Z,99677.81
2022-12-08T11:40:23.512Z,99667.81
2022-12-08T11:43:09.515Z,99670.06
2022-12-08T11:45:37.060Z,99675.59
2022-12-08T11:48:25.508Z,99682.00
2022-12-08T11:51:17.126Z,99677.50
2022-12-08T11:54:06.250Z,99687.72
2022-12-08T11:57:03.582Z,99695.16
2022-12-08T11:59:38.425Z,99694.97
2022-12-08T12:02:12.504Z,99699.66
2022-12-08T12:04:45.961Z,99699.66
2022-12-08T12:07:26.122Z,99693.25
2022-12-08T12:10:06.323Z,99691.13
2022-12-08T12:12:59.362Z,99686.88
2022-12-08T12:15:49.926Z,99684.94
2022-12-08T12:18:46.548Z,99691.34
2022-12-08T12:21:18.410Z,99696.22
2022-12-08T12:23:54.494Z,99695.84
2022-12-08T12:26:37.180Z,99685.59
2022-12-08T12:29:16.002Z,99683.72
2022-12-08T12:31:48.807Z,99684.22
2022-12-08T12:34:21.693Z,99683.34
2022-12-08T12:37:13.082Z,99675.94
2022-12-08T12:39:52.454Z,99676.81
2022-12-08T12:42:55.100Z,99678.69
2022-12-08T12:45:22.500Z,99693.19
2022-12-08T12:47:57.184Z,99690.63
2022-12-08T12:50:33.777Z,99698.75
2022-12-08T12:53:26.108Z,99689.75
2022-12-08T12:56:01.428Z,99678.88
2022-12-08T12:58:28.995Z,99668.00
2022-12-08T13:01:08.668Z,99668.69
2022-12-08T13:03:39.009Z,99661.75
2022-12-08T13:06:14.160Z,99648.13
2022-12-08T13:08:51.310Z,99660.91
2022-12-08T13:11:19.193Z,99657.47
2022-12-08T13:14:03.226Z,99660.91
2022-12-08T13:16:39.672Z,99658.16
2022-12-08T13:19:16.083Z,99664.50
2022-12-08T13:21:43.589Z,99667.50
2022-12-08T13:24:13.693Z,99670.06
2022-12-08T13:26:45.800Z,99657.44
2022-12-08T13:29:16.333Z,99661.44
2022-12-08T13:31:50.526Z,99648.66
2022-12-08T13:34:42.333Z,99655.91
2022-12-08T13:37:13.665Z,99644.97
2022-12-08T13:40:11.183Z,99650.34
2022-12-08T13:43:11.065Z,99655.03
2022-12-08T13:46:52.528Z,99663.31
2022-12-08T13:49:52.727Z,99660.69
2022-12-08T13:57:27.358Z,99636.66
2022-12-08T13:59:59.591Z,99642.19
2022-12-08T14:02:43.764Z,99639.44
2022-12-08T14:05:19.559Z,99636.66
2022-12-08T14:07:53.342Z,99631.81
2022-12-08T14:10:27.443Z,99622.69
2022-12-08T14:13:04.142Z,99622.81
2022-12-08T14:15:38.119Z,99623.75
2022-12-08T14:18:21.287Z,99627.16
2022-12-08T14:21:20.397Z,99627.34
2022-12-08T14:23:48.113Z,99620.75
2022-12-08T14:26:15.512Z,99627.00
2022-12-08T14:28:45.310Z,99632.03
2022-12-08T14:31:14.750Z,99626.16
2022-12-08T14:33:43.077Z,99628.28
2022-12-08T14:36:12.361Z,99628.44
2022-12-08T14:38:40.038Z,99622.25
2022-12-08T14:41:11.728Z,99629.00
2022-12-08T14:43:41.007Z,99622.16
2022-12-08T14:46:22.830Z,99632.84
2022-12-08T14:48:50.469Z,99629.75
2022-12-08T14:51:23.720Z,99634.06
2022-12-08T14:53:58.914Z,99633.41
2022-12-08T14:56:40.523Z,99631.69
2022-12-08T14:59:19.155Z,99635.50
2022-12-08T15:01:49.023Z,99642.94
2022-12-08T15:04:27.239Z,99633.75
2022-12-08T15:07:04.878Z,99630.31
2022-12-08T15:09:37.613Z,99626.88
2022-12-08T15:12:06.790Z,99631.19
2022-12-08T15:14:37.394Z,99628.59
2022-12-08T15:17:40.134Z,99623.06
2022-12-08T15:20:43.142Z,99607.34
2022-12-08T15:23:24.815Z,99597.50
2022-12-08T15:25:52.869Z,99609.91
2022-12-08T15:28:28.127Z,99598.56
2022-12-08T15:30:58.805Z,99605.16
2022-12-08T15:33:27.477Z,99602.38
2022-12-08T15:35:55.008Z,99606.16
2022-12-08T15:38:25.185Z,99604.28
2022-12-08T15:40:58.838Z,99608.94
2022-12-08T15:43:27.330Z,99607.22
2022-12-08T15:45:59.400Z,99606.56
2022-12-08T15:48:29.624Z,99613.63
2022-12-08T15:50:57.714Z,99609.31
2022-12-08T15:53:26.085Z,99604.44
2022-12-08T15:56:25.722Z,99602.94
2022-12-08T15:58:57.983Z,99600.19
2022-12-08T16:01:26.686Z,99613.13
2022-12-08T16:04:47.494Z,99615.72
2022-12-08T16:09:38.357Z,99642.06
2022-12-08T16:13:13.578Z,99641.59
2022-12-08T16:18:13.985Z,99653.13
2022-12-08T16:21:08.064Z,99653.13
2022-12-08T16:23:42.314Z,99640.16
2022-12-08T16:29:22.638Z,99643.81
2022-12-08T16:31:50.419Z,99649.50
2022-12-08T16:34:17.841Z,99650.34
2022-12-08T16:36:45.268Z,99654.66
2022-12-08T16:39:14.071Z,99648.47
2022-12-08T16:42:00.350Z,99643.09
2022-12-08T16:44:28.105Z,99648.63
2022-12-08T16:46:55.506Z,99636.72
2022-12-08T16:49:22.917Z,99651.22
2022-12-08T16:51:50.356Z,99657.81
2022-12-08T16:54:17.786Z,99665.22
2022-12-08T16:56:45.239Z,99660.56
2022-12-08T16:59:12.697Z,99656.09
2022-12-08T17:01:40.567Z,99649.50
2022-12-08T17:04:30.566Z,99652.28
2022-12-08T17:06:55.541Z,99657.81
2022-12-08T17:09:22.975Z,99645.69
2022-12-08T17:11:50.456Z,99638.25
2022-12-08T17:14:18.251Z,99639.28
2022-12-08T17:17:02.453Z,99647.41
2022-12-08T17:19:30.061Z,99638.25
2022-12-08T17:21:57.551Z,99644.63
2022-12-08T17:24:29.004Z,99643.81
2022-12-08T17:27:04.225Z,99629.09
2022-12-08T17:29:32.932Z,99648.28
2022-12-08T17:32:00.827Z,99649.81
2022-12-08T17:34:28.338Z,99648.06
2022-12-08T17:36:56.057Z,99651.03
2022-12-08T17:39:23.692Z,99651.88
2022-12-08T17:41:51.240Z,99643.41
2022-12-08T17:44:19.789Z,99645.50
2022-12-08T17:46:52.526Z,99632.34
2022-12-08T17:49:23.803Z,99625.75
2022-12-08T17:51:54.350Z,99625.75
2022-12-08T17:54:22.042Z,99621.94
2022-12-08T17:56:49.501Z,99630.44
2022-12-08T17:59:17.377Z,99644.94
2022-12-08T18:01:45.038Z,99647.91
2022-12-08T18:04:13.581Z,99652.59
2022-12-08T18:06:41.099Z,99657.25
2022-12-08T18:09:08.775Z,99647.22
2022-12-08T18:11:37.089Z,99650.00
2022-12-08T18:14:10.476Z,99638.06
2022-12-08T18:16:41.174Z,99636.81
2022-12-08T18:19:09.621Z,99636.16
2022-12-08T18:21:37.521Z,99638.94
2022-12-08T18:24:05.715Z,99651.72
2022-12-08T18:26:33.688Z,99644.47
2022-12-08T18:29:01.457Z,99635.09
2022-12-08T18:31:29.055Z,99638.75
2022-12-08T18:33:56.515Z,99657.56
2022-12-08T18:36:25.616Z,99658.78
2022-12-08T18:38:53.460Z,99667.94
2022-12-08T18:41:26.174Z,99661.72
2022-12-08T18:43:55.362Z,99660.00
2022-12-08T18:46:23.714Z,99663.44
2022-12-08T18:48:52.021Z,99653.25
2022-12-08T18:51:22.453Z,99647.50
2022-12-08T18:53:51.628Z,99652.38
2022-12-08T18:56:26.712Z,99653.91
2022-12-08T18:59:01.313Z,99652.88
2022-12-08T19:01:31.932Z,99648.38
2022-12-08T19:06:48.258Z,99646.28
2022-12-08T19:09:15.940Z,99632.66
2022-12-08T19:11:44.058Z,99637.97
2022-12-08T19:14:11.665Z,99638.84
2022-12-08T19:16:39.175Z,99646.09
2022-12-08T19:19:06.668Z,99652.69
2022-12-08T19:21:34.200Z,99649.03
2022-12-08T19:24:01.675Z,99654.41
2022-12-08T19:26:29.329Z,99663.56
2022-12-08T19:28:57.881Z,99665.47
2022-12-08T19:31:25.691Z,99659.06
2022-12-08T19:33:53.466Z,99644.22
2022-12-08T19:36:22.292Z,99640.56
2022-12-08T19:39:09.176Z,99629.69
2022-12-08T19:41:55.854Z,99622.44
2022-12-08T19:44:32.894Z,99640.97
2022-12-08T19:47:01.613Z,99643.72
2022-12-08T19:49:29.603Z,99663.94
2022-12-08T19:51:57.315Z,99664.81
2022-12-08T19:54:25.105Z,99657.56
2022-12-08T19:56:52.762Z,99645.78
2022-12-08T19:59:20.482Z,99654.31
2022-12-08T20:01:48.515Z,99635.97
2022-12-08T20:04:18.560Z,99641.13
2022-12-08T20:06:46.904Z,99639.59
2022-12-08T20:09:14.896Z,99646.28
2022-12-08T20:11:42.621Z,99641.31
2022-12-08T20:14:10.036Z,99645.78
2022-12-08T20:16:37.833Z,99664.97
2022-12-08T20:19:05.449Z,99661.16
2022-12-08T20:21:32.909Z,99669.47
2022-12-08T20:24:00.339Z,99680.72
2022-12-08T20:26:28.047Z,99687.28
2022-12-08T20:28:55.763Z,99689.22
2022-12-08T20:31:26.401Z,99683.69
2022-12-08T20:33:54.828Z,99683.84
2022-12-08T20:36:23.200Z,99681.97
2022-12-08T20:38:52.942Z,99682.81
2022-12-08T20:41:23.573Z,99686.63
2022-12-08T20:43:52.499Z,99678.31
2022-12-08T20:46:21.653Z,99672.97
2022-12-08T20:48:49.856Z,99667.25
2022-12-08T20:51:19.638Z,99678.16
2022-12-08T20:53:48.213Z,99678.50
2022-12-08T20:56:21.365Z,99674.72
2022-12-08T20:58:50.669Z,99672.63
2022-12-08T21:01:22.093Z,99677.94
2022-12-08T21:03:51.561Z,99680.25
2022-12-08T21:06:24.185Z,99684.91
2022-12-08T21:08:52.204Z,99689.88
2022-12-08T21:11:20.549Z,99692.81
2022-12-08T21:13:48.820Z,99698.38
2022-12-08T21:16:17.712Z,99694.75
2022-12-08T21:18:46.080Z,99696.16
2022-12-08T21:21:15.462Z,99699.78
2022-12-08T21:23:44.101Z,99692.34
2022-12-08T21:26:17.885Z,99692.72
2022-12-08T21:28:47.590Z,99699.78
2022-12-08T21:31:18.318Z,99698.91
2022-12-08T21:33:46.118Z,99695.31
2022-12-08T21:36:16.301Z,99693.38
2022-12-08T21:38:44.582Z,99696.38
2022-12-08T21:41:14.834Z,99705.31
2022-12-08T21:43:43.313Z,99693.22
2022-12-08T21:46:16.744Z,99692.53
2022-12-08T21:48:44.480Z,99695.31
2022-12-08T21:51:12.313Z,99694.25
2022-12-08T21:53:39.881Z,99694.94
2022-12-08T21:56:10.692Z,99706.16
2022-12-08T21:58:39.802Z,99704.09
2022-12-08T22:01:09.627Z,99701.50
2022-12-08T22:03:39.186Z,99707.03
2022-12-08T22:06:08.836Z,99719.34
2022-12-08T22:08:37.322Z,99720.88
2022-12-08T22:11:06.392Z,99726.72
2022-12-08T22:13:40.531Z,99721.69
2022-12-08T22:16:11.386Z,99726.28
2022-12-08T22:18:39.230Z,99726.63
2022-12-08T22:21:17.192Z,99727.28
2022-12-08T22:23:44.939Z,99730.22
2022-12-08T22:26:13.079Z,99735.09
2022-12-08T22:28:42.891Z,99731.28
2022-12-08T22:31:19.665Z,99722.47
2022-12-08T22:33:47.788Z,99735.28
2022-12-08T22:36:24.551Z,99740.97
2022-12-08T22:38:53.389Z,99748.59
2022-12-08T22:41:21.668Z,99747.75
2022-12-08T22:43:50.275Z,99735.63
2022-12-08T22:46:20.649Z,99741.16
2022-12-08T22:48:48.723Z,99740.97
2022-12-08T22:51:16.616Z,99728.38
2022-12-08T22:53:44.526Z,99729.44
2022-12-08T22:56:13.456Z,99734.97
2022-12-08T22:58:42.265Z,99744.09
2022-12-08T23:01:24.602Z,99733.03
2022-12-08T23:03:52.263Z,99723.91
2022-12-08T23:06:20.388Z,99724.91
2022-12-08T23:08:48.506Z,99711.94
2022-12-08T23:11:16.565Z,99713.84
2022-12-08T23:13:44.223Z,99726.66
2022-12-08T23:16:12.060Z,99723.91
2022-12-08T23:18:44.947Z,99727.69
2022-12-08T23:21:16.416Z,99735.13
2022-12-08T23:23:44.160Z,99729.59
2022-12-08T23:26:21.985Z,99730.66
2022-12-08T23:28:50.079Z,99735.97
2022-12-08T23:31:18.858Z,99735.63
2022-12-08T23:33:46.794Z,99718.81
2022-12-08T23:36:16.029Z,99717.84
2022-12-08T23:38:43.764Z,99713.13
2022-12-08T23:41:13.588Z,99711.03
2022-12-08T23:43:45.904Z,99704.47
2022-12-08T23:46:15.249Z,99705.31
2022-12-08T23:48:43.303Z,99705.97
2022-12-08T23:51:11.666Z,99708.56
2022-12-08T23:53:40.291Z,99698.38
2022-12-08T23:56:11.794Z,99683.84
2022-12-08T23:58:40.732Z,99693.69
